Kitanomaru — JD2835 — position and weather

sailwx.info

Track history (hours):
 
Tides and Currents Weather Stations Pressure Air Temp Water Temp Dewpoint Dewpoint Depression Visibility Wind Speed Wind Dir Waves Ship Positions

Kitanomaru

Last reported at 2015-Jul-07 04:33 UTC. Time now 2015-Jul-07 04:40 UTC.
Position N 35°37' E 140°00'.

Length 39 m; draft 4 m.

Type: Tug. MMSI: 431000773.

Date/timePositionNaut miles runAvg speedWind from/ knotsBaromVisibWave heightAir tempDewpointWater temp
2015-Jul-07 04:33N 35°37' E 140°00'3 2.7
2015-Jul-07 03:33N 35°40' E 139°59'4 4.3
2015-Jul-07 02:33N 35°35' E 139°59'3 3.4
2015-Jul-07 01:33N 35°39' E 139°59'1 1.0
2015-Jul-07 00:33N 35°38' E 139°59'4 3.8
2015-Jul-06 23:33N 35°36' E 140°03'3 2.6
2015-Jul-06 22:34N 35°36' E 140°06'0 0.0
2015-Jul-06 21:34N 35°36' E 140°06'0 0.0
2015-Jul-06 20:34N 35°36' E 140°06'0 0.0
2015-Jul-06 19:34N 35°36' E 140°06'0 0.0
2015-Jul-06 18:33N 35°36' E 140°06'0 0.0
2015-Jul-06 17:33N 35°36' E 140°06'0 0.0
2015-Jul-06 16:33N 35°36' E 140°06'0 0.0
2015-Jul-06 15:33N 35°36' E 140°06'0 0.0
2015-Jul-06 14:33N 35°36' E 140°06'0 0.0
2015-Jul-06 13:33N 35°36' E 140°06'0 0.0
2015-Jul-06 12:33N 35°36' E 140°06'0 0.0
2015-Jul-06 11:33N 35°36' E 140°06'0 0.0
2015-Jul-06 10:33N 35°36' E 140°06'0 0.0
2015-Jul-06 09:34N 35°36' E 140°06'5 5.4
2015-Jul-06 08:33N 35°32' E 140°02'5 4.9
2015-Jul-06 07:33N 35°28' E 139°58'1 0.8
2015-Jul-06 06:33N 35°29' E 139°58'1 1.3
2015-Jul-06 05:34N 35°30' E 139°57'8 7.5
2015-Jul-06 04:33N 35°35' E 140°04'2 2.5
2015-Jul-06 03:33N 35°36' E 140°06'0 0.0
2015-Jul-06 02:33N 35°36' E 140°06'0 0.0
2015-Jul-06 01:34N 35°36' E 140°06'0 0.0
2015-Jul-06 00:33N 35°36' E 140°06'0 0.0
2015-Jul-05 23:33N 35°36' E 140°06'0 0.0
2015-Jul-05 22:33N 35°36' E 140°06'0 0.0
2015-Jul-05 21:33N 35°36' E 140°06'0 0.0
2015-Jul-05 20:34N 35°36' E 140°06'0 0.0
2015-Jul-05 19:33N 35°36' E 140°06'0 0.0
2015-Jul-05 18:33N 35°36' E 140°06'0 0.0
2015-Jul-05 17:33N 35°36' E 140°06'0 0.0
2015-Jul-05 16:33N 35°36' E 140°06'0 0.0
2015-Jul-05 15:34N 35°36' E 140°06'0 0.0
2015-Jul-05 14:34N 35°36' E 140°06'0 0.0
2015-Jul-05 13:34N 35°36' E 140°06'0 0.0
2015-Jul-05 12:33N 35°36' E 140°06'0 0.0
2015-Jul-05 11:33N 35°36' E 140°06'0 0.0
2015-Jul-05 10:34N 35°36' E 140°06'0 0.0
2015-Jul-05 09:34N 35°36' E 140°06'0 0.0
2015-Jul-05 08:34N 35°36' E 140°06'8 7.8
2015-Jul-05 07:33N 35°30' E 139°60'3 2.6
2015-Jul-05 06:33N 35°28' E 139°58'0 0.3
2015-Jul-05 05:33N 35°29' E 139°58'1 0.9
2015-Jul-05 04:34N 35°29' E 139°57'1 1.1
2015-Jul-05 03:33N 35°28' E 139°58'0 0.5
2015-Jul-05 02:33N 35°29' E 139°58'0 0.0
2015-Jul-05 01:33N 35°29' E 139°58'0 0.1
2015-Jul-05 00:33N 35°29' E 139°59'5 5.3
2015-Jul-04 23:33N 35°32' E 140°03'5 4.5
2015-Jul-04 22:33N 35°36' E 140°06'0 0.0
2015-Jul-04 21:33N 35°36' E 140°06'0 0.0
2015-Jul-04 20:33N 35°36' E 140°06'0 0.0
2015-Jul-04 19:34N 35°36' E 140°06'0 0.0
2015-Jul-04 18:34N 35°36' E 140°06'0 0.0
2015-Jul-04 17:34N 35°36' E 140°06'0 0.0
2015-Jul-04 16:33N 35°36' E 140°06'0 0.0
2015-Jul-04 15:33N 35°36' E 140°06'0 0.0
2015-Jul-04 14:33N 35°36' E 140°06'0 0.0
2015-Jul-04 13:33N 35°36' E 140°06'0 0.0
2015-Jul-04 12:33N 35°36' E 140°06'0 0.0
2015-Jul-04 11:33N 35°36' E 140°06'0 0.0
2015-Jul-04 10:34N 35°36' E 140°06'0 0.0
2015-Jul-04 09:34N 35°36' E 140°06'0 0.0
2015-Jul-04 08:34N 35°36' E 140°06'0 0.0
2015-Jul-04 07:34N 35°36' E 140°06'0 0.1
2015-Jul-04 06:33N 35°36' E 140°06'1010.1
2015-Jul-04 05:33N 35°29' E 139°58'0 0.2
2015-Jul-04 04:33N 35°28' E 139°58'2 2.1
2015-Jul-04 03:34N 35°30' E 139°56'2 2.1
2015-Jul-04 02:33N 35°29' E 139°58'0 0.0
2015-Jul-04 01:34N 35°29' E 139°58'0 0.0
2015-Jul-04 00:33N 35°29' E 139°58'9 8.8
2015-Jul-03 23:33N 35°36' E 140°05'1 1.1
2015-Jul-03 22:33N 35°36' E 140°04'2 1.9
2015-Jul-03 21:33N 35°34' E 140°03'1 0.6
2015-Jul-03 20:33N 35°35' E 140°03'3 3.1
2015-Jul-03 19:33N 35°36' E 140°06'0 0.0
2015-Jul-03 18:33N 35°36' E 140°06'0 0.0
2015-Jul-03 17:33N 35°36' E 140°06'0 0.0
2015-Jul-03 16:33N 35°36' E 140°06'0 0.0
2015-Jul-03 15:33N 35°36' E 140°06'0 0.0
2015-Jul-03 14:33N 35°36' E 140°06'0 0.0
2015-Jul-03 13:33N 35°36' E 140°06'0 0.0
2015-Jul-03 12:33N 35°36' E 140°06'0 0.0
2015-Jul-03 11:33N 35°36' E 140°06'0 0.0
2015-Jul-03 10:34N 35°36' E 140°06'1 0.8
2015-Jul-03 09:33N 35°36' E 140°06'1 1.2
2015-Jul-03 08:33N 35°36' E 140°04'3 2.5
2015-Jul-03 07:33N 35°33' E 140°03'4 3.8
2015-Jul-03 06:33N 35°30' E 140°01'1 0.6
2015-Jul-03 05:34N 35°30' E 140°01'4 4.5
2015-Jul-03 04:33N 35°34' E 139°58'4 3.6
2015-Jul-03 03:33N 35°31' E 139°60'3 2.8
2015-Jul-03 02:34N 35°29' E 139°58'0 0.3
2015-Jul-03 01:33N 35°28' E 139°58'1 0.5
2015-Jul-03 00:33N 35°29' E 139°58'0 0.0
2015-Jul-02 23:33N 35°29' E 139°58'0 0.2
2015-Jul-02 22:33N 35°29' E 139°59'4 3.6
2015-Jul-02 21:32N 35°31' E 140°02'6 6.1
2015-Jul-02 20:34N 35°36' E 140°06'0 0.0
2015-Jul-02 19:34N 35°36' E 140°06'0 0.0
2015-Jul-02 18:33N 35°36' E 140°06'0 0.0
2015-Jul-02 17:33N 35°36' E 140°06'0 0.0
2015-Jul-02 16:34N 35°36' E 140°06'0 0.0
2015-Jul-02 15:33N 35°36' E 140°06'0 0.0
2015-Jul-02 14:33N 35°36' E 140°06'0 0.0
2015-Jul-02 13:34N 35°36' E 140°06'0 0.0
2015-Jul-02 12:34N 35°36' E 140°06'0 0.0
2015-Jul-02 11:33N 35°36' E 140°06'0 0.0
2015-Jul-02 10:32N 35°36' E 140°06'5 4.8
2015-Jul-02 09:33N 35°33' E 140°02'3 2.9
2015-Jul-02 08:33N 35°30' E 140°01'1 0.8
2015-Jul-02 07:33N 35°31' E 140°01'4 4.1
2015-Jul-02 06:34N 35°31' E 139°56'0 0.1
2015-Jul-02 05:33N 35°31' E 139°56'2 1.7
2015-Jul-02 04:33N 35°30' E 139°54'1 1.1
2015-Jul-02 03:34N 35°29' E 139°55'1 0.9
2015-Jul-02 02:34N 35°30' E 139°56'5 5.3
2015-Jul-02 01:33N 35°31' E 140°02'0 0.5
2015-Jul-02 00:34N 35°31' E 140°02'1 0.6
2015-Jul-01 23:33N 35°31' E 140°01'6 6.4
2015-Jul-01 22:34N 35°36' E 140°06'0 0.5
2015-Jul-01 21:34N 35°36' E 140°06'0 0.0
2015-Jul-01 20:34N 35°36' E 140°06'0 0.0
2015-Jul-01 19:34N 35°36' E 140°06'0 0.0
2015-Jul-01 18:34N 35°36' E 140°06'0 0.0
2015-Jul-01 17:33N 35°36' E 140°06'0 0.0
2015-Jul-01 16:33N 35°36' E 140°06'0 0.0
2015-Jul-01 15:33N 35°36' E 140°06'0 0.0
2015-Jul-01 14:33N 35°36' E 140°06'0 0.0
2015-Jul-01 13:33N 35°36' E 140°06'0 0.0
2015-Jul-01 12:33N 35°36' E 140°06'0 0.0
2015-Jul-01 11:33N 35°36' E 140°06'0 0.0
2015-Jul-01 10:34N 35°36' E 140°06'0 0.0
2015-Jul-01 09:33N 35°36' E 140°06'1 1.4
2015-Jul-01 08:33N 35°35' E 140°05'4 3.9
2015-Jul-01 07:33N 35°32' E 140°03'1 0.7
2015-Jul-01 06:33N 35°32' E 140°02'7 6.6
2015-Jul-01 05:32N 35°29' E 139°55'0 0.1
2015-Jul-01 04:33N 35°29' E 139°55'0 0.0
2015-Jul-01 03:33N 35°29' E 139°55'0 0.0
2015-Jul-01 02:33N 35°29' E 139°55'0 0.1
2015-Jul-01 01:33N 35°29' E 139°55'0 0.0
2015-Jul-01 00:33N 35°29' E 139°55'0 0.0
2015-Jun-30 23:33N 35°29' E 139°55'0 0.3
2015-Jun-30 22:33N 35°29' E 139°55'5 5.0
2015-Jun-30 21:33N 35°31' E 140°01'7 6.9
2015-Jun-30 20:34N 35°36' E 140°06'0 0.1
2015-Jun-30 19:33N 35°36' E 140°06'0 0.0
2015-Jun-30 18:33N 35°36' E 140°06'0 0.0
2015-Jun-30 17:33N 35°36' E 140°06'0 0.0
2015-Jun-30 16:33N 35°36' E 140°06'0 0.0
2015-Jun-30 15:33N 35°36' E 140°06'0 0.0
2015-Jun-30 14:33N 35°36' E 140°06'0 0.0
2015-Jun-30 13:33N 35°36' E 140°06'0 0.0
2015-Jun-30 12:33N 35°36' E 140°06'0 0.0
2015-Jun-30 11:33N 35°36' E 140°06'0 0.0
2015-Jun-30 10:33N 35°36' E 140°06'0 0.0
2015-Jun-30 09:33N 35°36' E 140°06'0 0.0
2015-Jun-30 08:33N 35°36' E 140°06'0 0.0
2015-Jun-30 07:33N 35°36' E 140°06'5 4.5
2015-Jun-30 06:32N 35°32' E 140°03'3 3.0
2015-Jun-30 05:33N 35°35' E 140°05'0 0.0
2015-Jun-30 04:33N 35°35' E 140°05'2 1.9
2015-Jun-30 03:33N 35°36' E 140°07'0 0.0
2015-Jun-30 02:33N 35°36' E 140°07'0 0.0
2015-Jun-30 01:33N 35°36' E 140°07'0 0.0
2015-Jun-30 00:33N 35°36' E 140°07'0 0.0
2015-Jun-29 23:33N 35°36' E 140°07'0 0.0
2015-Jun-29 22:33N 35°36' E 140°07'0 0.0
2015-Jun-29 21:33N 35°36' E 140°07'0 0.0
2015-Jun-29 20:33N 35°36' E 140°07'0 0.0
2015-Jun-29 19:33N 35°36' E 140°07'0 0.0
2015-Jun-29 18:33N 35°36' E 140°07'0 0.0
2015-Jun-29 17:33N 35°36' E 140°07'0 0.0
2015-Jun-29 16:33N 35°36' E 140°07'0 0.0
2015-Jun-29 15:33N 35°36' E 140°07'0 0.0
2015-Jun-29 14:33N 35°36' E 140°07'0 0.0
2015-Jun-29 13:33N 35°36' E 140°07'0 0.0
2015-Jun-29 12:33N 35°36' E 140°07'0 0.0
2015-Jun-29 11:33N 35°36' E 140°07'0 0.0
2015-Jun-29 10:33N 35°36' E 140°07'0 0.0
2015-Jun-29 09:33N 35°36' E 140°07'0 0.0
2015-Jun-29 08:33N 35°36' E 140°07'2 1.7
2015-Jun-29 07:33N 35°36' E 140°05'0 0.0
2015-Jun-29 06:33N 35°36' E 140°05'5 4.6
2015-Jun-29 05:33N 35°33' E 139°60'2 1.8
2015-Jun-29 04:33N 35°33' E 139°58'1 0.7
2015-Jun-29 03:33N 35°33' E 139°58'4 4.0
2015-Jun-29 02:33N 35°31' E 140°02'6 6.1
2015-Jun-29 01:33N 35°36' E 140°07'0 0.0
2015-Jun-29 00:33N 35°36' E 140°07'0 0.0
2015-Jun-28 23:33N 35°36' E 140°07'1 1.2
2015-Jun-28 22:33N 35°36' E 140°05'7 6.6
2015-Jun-28 21:33N 35°32' E 139°59'4 3.5
2015-Jun-28 20:33N 35°34' E 140°03'4 4.0
2015-Jun-28 19:33N 35°36' E 140°07'0 0.0
2015-Jun-28 18:33N 35°36' E 140°07'0 0.0
2015-Jun-28 17:33N 35°36' E 140°07'0 0.0
2015-Jun-28 16:33N 35°36' E 140°07'0 0.0
2015-Jun-28 15:33N 35°36' E 140°07'0 0.0
2015-Jun-28 14:33N 35°36' E 140°07'0 0.0
2015-Jun-28 13:33N 35°36' E 140°07'0 0.0
2015-Jun-28 12:33N 35°36' E 140°07'0 0.0
2015-Jun-28 11:33N 35°36' E 140°07'0 0.0
2015-Jun-28 10:33N 35°36' E 140°07'0 0.0
2015-Jun-28 09:33N 35°36' E 140°07'0 0.0
2015-Jun-28 08:33N 35°36' E 140°07'0 0.0
2015-Jun-28 07:33N 35°36' E 140°07'0 0.0
2015-Jun-28 06:33N 35°36' E 140°07'0 0.0
2015-Jun-28 05:33N 35°36' E 140°07'0 0.0
2015-Jun-28 04:33N 35°36' E 140°07'0 0.0
2015-Jun-28 03:33N 35°36' E 140°07'0 0.0
2015-Jun-28 02:33N 35°36' E 140°07'0 0.0
2015-Jun-28 01:33N 35°36' E 140°07'0 0.0
2015-Jun-28 00:33N 35°36' E 140°07'0 0.0
2015-Jun-27 23:33N 35°36' E 140°07'0 0.0
2015-Jun-27 22:33N 35°36' E 140°07'0 0.0
2015-Jun-27 21:33N 35°36' E 140°07'0 0.0
2015-Jun-27 20:33N 35°36' E 140°07'0 0.0
2015-Jun-27 19:33N 35°36' E 140°07'0 0.0
2015-Jun-27 18:33N 35°36' E 140°07'0 0.0
2015-Jun-27 17:33N 35°36' E 140°07'0 0.0
2015-Jun-27 16:33N 35°36' E 140°07'0 0.0
2015-Jun-27 15:33N 35°36' E 140°07'0 0.0
2015-Jun-27 14:33N 35°36' E 140°07'0 0.0
2015-Jun-27 13:33N 35°36' E 140°07'0 0.0
2015-Jun-27 12:33N 35°36' E 140°07'0 0.0
2015-Jun-27 11:33N 35°36' E 140°07'0 0.0
2015-Jun-27 10:33N 35°36' E 140°07'0 0.0
2015-Jun-27 09:33N 35°36' E 140°07'0 0.0
2015-Jun-27 08:33N 35°36' E 140°07'1 0.9
2015-Jun-27 07:33N 35°35' E 140°06'1 0.6
2015-Jun-27 06:33N 35°36' E 140°06'8 7.6
2015-Jun-27 05:33N 35°32' E 139°58'1 1.0
2015-Jun-27 04:34N 35°32' E 139°57'  
Track history (hours):
 
Tides and Currents Weather Stations Pressure Air Temp Water Temp Dewpoint Dewpoint Depression Visibility Wind Speed Wind Dir Waves Ship Positions

Kitanomaru

Last reported at 2015-Jul-07 04:33 UTC. Time now 2015-Jul-07 04:40 UTC.
Position N 35°37' E 140°00'.

Length 39 m; draft 4 m.

Type: Tug. MMSI: 431000773.

Date/timePositionNaut miles runAvg speedWind from/ knotsBaromVisibWave heightAir tempDewpointWater temp
2015-Jul-07 04:33N 35°37' E 140°00'3 2.7
2015-Jul-07 03:33N 35°40' E 139°59'4 4.3
2015-Jul-07 02:33N 35°35' E 139°59'3 3.4
2015-Jul-07 01:33N 35°39' E 139°59'1 1.0
2015-Jul-07 00:33N 35°38' E 139°59'4 3.8
2015-Jul-06 23:33N 35°36' E 140°03'3 2.6
2015-Jul-06 22:34N 35°36' E 140°06'0 0.0
2015-Jul-06 21:34N 35°36' E 140°06'0 0.0
2015-Jul-06 20:34N 35°36' E 140°06'0 0.0
2015-Jul-06 19:34N 35°36' E 140°06'0 0.0
2015-Jul-06 18:33N 35°36' E 140°06'0 0.0
2015-Jul-06 17:33N 35°36' E 140°06'0 0.0
2015-Jul-06 16:33N 35°36' E 140°06'0 0.0
2015-Jul-06 15:33N 35°36' E 140°06'0 0.0
2015-Jul-06 14:33N 35°36' E 140°06'0 0.0
2015-Jul-06 13:33N 35°36' E 140°06'0 0.0
2015-Jul-06 12:33N 35°36' E 140°06'0 0.0
2015-Jul-06 11:33N 35°36' E 140°06'0 0.0
2015-Jul-06 10:33N 35°36' E 140°06'0 0.0
2015-Jul-06 09:34N 35°36' E 140°06'5 5.4
2015-Jul-06 08:33N 35°32' E 140°02'5 4.9
2015-Jul-06 07:33N 35°28' E 139°58'1 0.8
2015-Jul-06 06:33N 35°29' E 139°58'1 1.3
2015-Jul-06 05:34N 35°30' E 139°57'8 7.5
2015-Jul-06 04:33N 35°35' E 140°04'2 2.5
2015-Jul-06 03:33N 35°36' E 140°06'0 0.0
2015-Jul-06 02:33N 35°36' E 140°06'0 0.0
2015-Jul-06 01:34N 35°36' E 140°06'0 0.0
2015-Jul-06 00:33N 35°36' E 140°06'0 0.0
2015-Jul-05 23:33N 35°36' E 140°06'0 0.0
2015-Jul-05 22:33N 35°36' E 140°06'0 0.0
2015-Jul-05 21:33N 35°36' E 140°06'0 0.0
2015-Jul-05 20:34N 35°36' E 140°06'0 0.0
2015-Jul-05 19:33N 35°36' E 140°06'0 0.0
2015-Jul-05 18:33N 35°36' E 140°06'0 0.0
2015-Jul-05 17:33N 35°36' E 140°06'0 0.0
2015-Jul-05 16:33N 35°36' E 140°06'0 0.0
2015-Jul-05 15:34N 35°36' E 140°06'0 0.0
2015-Jul-05 14:34N 35°36' E 140°06'0 0.0
2015-Jul-05 13:34N 35°36' E 140°06'0 0.0
2015-Jul-05 12:33N 35°36' E 140°06'0 0.0
2015-Jul-05 11:33N 35°36' E 140°06'0 0.0
2015-Jul-05 10:34N 35°36' E 140°06'0 0.0
2015-Jul-05 09:34N 35°36' E 140°06'0 0.0
2015-Jul-05 08:34N 35°36' E 140°06'8 7.8
2015-Jul-05 07:33N 35°30' E 139°60'3 2.6
2015-Jul-05 06:33N 35°28' E 139°58'0 0.3
2015-Jul-05 05:33N 35°29' E 139°58'1 0.9
2015-Jul-05 04:34N 35°29' E 139°57'1 1.1
2015-Jul-05 03:33N 35°28' E 139°58'0 0.5
2015-Jul-05 02:33N 35°29' E 139°58'0 0.0
2015-Jul-05 01:33N 35°29' E 139°58'0 0.1
2015-Jul-05 00:33N 35°29' E 139°59'5 5.3
2015-Jul-04 23:33N 35°32' E 140°03'5 4.5
2015-Jul-04 22:33N 35°36' E 140°06'0 0.0
2015-Jul-04 21:33N 35°36' E 140°06'0 0.0
2015-Jul-04 20:33N 35°36' E 140°06'0 0.0
2015-Jul-04 19:34N 35°36' E 140°06'0 0.0
2015-Jul-04 18:34N 35°36' E 140°06'0 0.0
2015-Jul-04 17:34N 35°36' E 140°06'0 0.0
2015-Jul-04 16:33N 35°36' E 140°06'0 0.0
2015-Jul-04 15:33N 35°36' E 140°06'0 0.0
2015-Jul-04 14:33N 35°36' E 140°06'0 0.0
2015-Jul-04 13:33N 35°36' E 140°06'0 0.0
2015-Jul-04 12:33N 35°36' E 140°06'0 0.0
2015-Jul-04 11:33N 35°36' E 140°06'0 0.0
2015-Jul-04 10:34N 35°36' E 140°06'0 0.0
2015-Jul-04 09:34N 35°36' E 140°06'0 0.0
2015-Jul-04 08:34N 35°36' E 140°06'0 0.0
2015-Jul-04 07:34N 35°36' E 140°06'0 0.1
2015-Jul-04 06:33N 35°36' E 140°06'1010.1
2015-Jul-04 05:33N 35°29' E 139°58'0 0.2
2015-Jul-04 04:33N 35°28' E 139°58'2 2.1
2015-Jul-04 03:34N 35°30' E 139°56'2 2.1
2015-Jul-04 02:33N 35°29' E 139°58'0 0.0
2015-Jul-04 01:34N 35°29' E 139°58'0 0.0
2015-Jul-04 00:33N 35°29' E 139°58'9 8.8
2015-Jul-03 23:33N 35°36' E 140°05'1 1.1
2015-Jul-03 22:33N 35°36' E 140°04'2 1.9
2015-Jul-03 21:33N 35°34' E 140°03'1 0.6
2015-Jul-03 20:33N 35°35' E 140°03'3 3.1
2015-Jul-03 19:33N 35°36' E 140°06'0 0.0
2015-Jul-03 18:33N 35°36' E 140°06'0 0.0
2015-Jul-03 17:33N 35°36' E 140°06'0 0.0
2015-Jul-03 16:33N 35°36' E 140°06'0 0.0
2015-Jul-03 15:33N 35°36' E 140°06'0 0.0
2015-Jul-03 14:33N 35°36' E 140°06'0 0.0
2015-Jul-03 13:33N 35°36' E 140°06'0 0.0
2015-Jul-03 12:33N 35°36' E 140°06'0 0.0
2015-Jul-03 11:33N 35°36' E 140°06'0 0.0
2015-Jul-03 10:34N 35°36' E 140°06'1 0.8
2015-Jul-03 09:33N 35°36' E 140°06'1 1.2
2015-Jul-03 08:33N 35°36' E 140°04'3 2.5
2015-Jul-03 07:33N 35°33' E 140°03'4 3.8
2015-Jul-03 06:33N 35°30' E 140°01'1 0.6
2015-Jul-03 05:34N 35°30' E 140°01'4 4.5
2015-Jul-03 04:33N 35°34' E 139°58'4 3.6
2015-Jul-03 03:33N 35°31' E 139°60'3 2.8
2015-Jul-03 02:34N 35°29' E 139°58'0 0.3
2015-Jul-03 01:33N 35°28' E 139°58'1 0.5
2015-Jul-03 00:33N 35°29' E 139°58'0 0.0
2015-Jul-02 23:33N 35°29' E 139°58'0 0.2
2015-Jul-02 22:33N 35°29' E 139°59'4 3.6
2015-Jul-02 21:32N 35°31' E 140°02'6 6.1
2015-Jul-02 20:34N 35°36' E 140°06'0 0.0
2015-Jul-02 19:34N 35°36' E 140°06'0 0.0
2015-Jul-02 18:33N 35°36' E 140°06'0 0.0
2015-Jul-02 17:33N 35°36' E 140°06'0 0.0
2015-Jul-02 16:34N 35°36' E 140°06'0 0.0
2015-Jul-02 15:33N 35°36' E 140°06'0 0.0
2015-Jul-02 14:33N 35°36' E 140°06'0 0.0
2015-Jul-02 13:34N 35°36' E 140°06'0 0.0
2015-Jul-02 12:34N 35°36' E 140°06'0 0.0
2015-Jul-02 11:33N 35°36' E 140°06'0 0.0
2015-Jul-02 10:32N 35°36' E 140°06'5 4.8
2015-Jul-02 09:33N 35°33' E 140°02'3 2.9
2015-Jul-02 08:33N 35°30' E 140°01'1 0.8
2015-Jul-02 07:33N 35°31' E 140°01'4 4.1
2015-Jul-02 06:34N 35°31' E 139°56'0 0.1
2015-Jul-02 05:33N 35°31' E 139°56'2 1.7
2015-Jul-02 04:33N 35°30' E 139°54'1 1.1
2015-Jul-02 03:34N 35°29' E 139°55'1 0.9
2015-Jul-02 02:34N 35°30' E 139°56'5 5.3
2015-Jul-02 01:33N 35°31' E 140°02'0 0.5
2015-Jul-02 00:34N 35°31' E 140°02'1 0.6
2015-Jul-01 23:33N 35°31' E 140°01'6 6.4
2015-Jul-01 22:34N 35°36' E 140°06'0 0.5
2015-Jul-01 21:34N 35°36' E 140°06'0 0.0
2015-Jul-01 20:34N 35°36' E 140°06'0 0.0
2015-Jul-01 19:34N 35°36' E 140°06'0 0.0
2015-Jul-01 18:34N 35°36' E 140°06'0 0.0
2015-Jul-01 17:33N 35°36' E 140°06'0 0.0
2015-Jul-01 16:33N 35°36' E 140°06'0 0.0
2015-Jul-01 15:33N 35°36' E 140°06'0 0.0
2015-Jul-01 14:33N 35°36' E 140°06'0 0.0
2015-Jul-01 13:33N 35°36' E 140°06'0 0.0
2015-Jul-01 12:33N 35°36' E 140°06'0 0.0
2015-Jul-01 11:33N 35°36' E 140°06'0 0.0
2015-Jul-01 10:34N 35°36' E 140°06'0 0.0
2015-Jul-01 09:33N 35°36' E 140°06'1 1.4
2015-Jul-01 08:33N 35°35' E 140°05'4 3.9
2015-Jul-01 07:33N 35°32' E 140°03'1 0.7
2015-Jul-01 06:33N 35°32' E 140°02'7 6.6
2015-Jul-01 05:32N 35°29' E 139°55'0 0.1
2015-Jul-01 04:33N 35°29' E 139°55'0 0.0
2015-Jul-01 03:33N 35°29' E 139°55'0 0.0
2015-Jul-01 02:33N 35°29' E 139°55'0 0.1
2015-Jul-01 01:33N 35°29' E 139°55'0 0.0
2015-Jul-01 00:33N 35°29' E 139°55'0 0.0
2015-Jun-30 23:33N 35°29' E 139°55'0 0.3
2015-Jun-30 22:33N 35°29' E 139°55'5 5.0
2015-Jun-30 21:33N 35°31' E 140°01'7 6.9
2015-Jun-30 20:34N 35°36' E 140°06'0 0.1
2015-Jun-30 19:33N 35°36' E 140°06'0 0.0
2015-Jun-30 18:33N 35°36' E 140°06'0 0.0
2015-Jun-30 17:33N 35°36' E 140°06'0 0.0
2015-Jun-30 16:33N 35°36' E 140°06'0 0.0
2015-Jun-30 15:33N 35°36' E 140°06'0 0.0
2015-Jun-30 14:33N 35°36' E 140°06'0 0.0
2015-Jun-30 13:33N 35°36' E 140°06'0 0.0
2015-Jun-30 12:33N 35°36' E 140°06'0 0.0
2015-Jun-30 11:33N 35°36' E 140°06'0 0.0
2015-Jun-30 10:33N 35°36' E 140°06'0 0.0
2015-Jun-30 09:33N 35°36' E 140°06'0 0.0
2015-Jun-30 08:33N 35°36' E 140°06'0 0.0
2015-Jun-30 07:33N 35°36' E 140°06'5 4.5
2015-Jun-30 06:32N 35°32' E 140°03'3 3.0
2015-Jun-30 05:33N 35°35' E 140°05'0 0.0
2015-Jun-30 04:33N 35°35' E 140°05'2 1.9
2015-Jun-30 03:33N 35°36' E 140°07'0 0.0
2015-Jun-30 02:33N 35°36' E 140°07'0 0.0
2015-Jun-30 01:33N 35°36' E 140°07'0 0.0
2015-Jun-30 00:33N 35°36' E 140°07'0 0.0
2015-Jun-29 23:33N 35°36' E 140°07'0 0.0
2015-Jun-29 22:33N 35°36' E 140°07'0 0.0
2015-Jun-29 21:33N 35°36' E 140°07'0 0.0
2015-Jun-29 20:33N 35°36' E 140°07'0 0.0
2015-Jun-29 19:33N 35°36' E 140°07'0 0.0
2015-Jun-29 18:33N 35°36' E 140°07'0 0.0
2015-Jun-29 17:33N 35°36' E 140°07'0 0.0
2015-Jun-29 16:33N 35°36' E 140°07'0 0.0
2015-Jun-29 15:33N 35°36' E 140°07'0 0.0
2015-Jun-29 14:33N 35°36' E 140°07'0 0.0
2015-Jun-29 13:33N 35°36' E 140°07'0 0.0
2015-Jun-29 12:33N 35°36' E 140°07'0 0.0
2015-Jun-29 11:33N 35°36' E 140°07'0 0.0
2015-Jun-29 10:33N 35°36' E 140°07'0 0.0
2015-Jun-29 09:33N 35°36' E 140°07'0 0.0
2015-Jun-29 08:33N 35°36' E 140°07'2 1.7
2015-Jun-29 07:33N 35°36' E 140°05'0 0.0
2015-Jun-29 06:33N 35°36' E 140°05'5 4.6
2015-Jun-29 05:33N 35°33' E 139°60'2 1.8
2015-Jun-29 04:33N 35°33' E 139°58'1 0.7
2015-Jun-29 03:33N 35°33' E 139°58'4 4.0
2015-Jun-29 02:33N 35°31' E 140°02'6 6.1
2015-Jun-29 01:33N 35°36' E 140°07'0 0.0
2015-Jun-29 00:33N 35°36' E 140°07'0 0.0
2015-Jun-28 23:33N 35°36' E 140°07'1 1.2
2015-Jun-28 22:33N 35°36' E 140°05'7 6.6
2015-Jun-28 21:33N 35°32' E 139°59'4 3.5
2015-Jun-28 20:33N 35°34' E 140°03'4 4.0
2015-Jun-28 19:33N 35°36' E 140°07'0 0.0
2015-Jun-28 18:33N 35°36' E 140°07'0 0.0
2015-Jun-28 17:33N 35°36' E 140°07'0 0.0
2015-Jun-28 16:33N 35°36' E 140°07'0 0.0
2015-Jun-28 15:33N 35°36' E 140°07'0 0.0
2015-Jun-28 14:33N 35°36' E 140°07'0 0.0
2015-Jun-28 13:33N 35°36' E 140°07'0 0.0
2015-Jun-28 12:33N 35°36' E 140°07'0 0.0
2015-Jun-28 11:33N 35°36' E 140°07'0 0.0
2015-Jun-28 10:33N 35°36' E 140°07'0 0.0
2015-Jun-28 09:33N 35°36' E 140°07'0 0.0
2015-Jun-28 08:33N 35°36' E 140°07'0 0.0
2015-Jun-28 07:33N 35°36' E 140°07'0 0.0
2015-Jun-28 06:33N 35°36' E 140°07'0 0.0
2015-Jun-28 05:33N 35°36' E 140°07'0 0.0
2015-Jun-28 04:33N 35°36' E 140°07'0 0.0
2015-Jun-28 03:33N 35°36' E 140°07'0 0.0
2015-Jun-28 02:33N 35°36' E 140°07'0 0.0
2015-Jun-28 01:33N 35°36' E 140°07'0 0.0
2015-Jun-28 00:33N 35°36' E 140°07'0 0.0
2015-Jun-27 23:33N 35°36' E 140°07'0 0.0
2015-Jun-27 22:33N 35°36' E 140°07'0 0.0
2015-Jun-27 21:33N 35°36' E 140°07'0 0.0
2015-Jun-27 20:33N 35°36' E 140°07'0 0.0
2015-Jun-27 19:33N 35°36' E 140°07'0 0.0
2015-Jun-27 18:33N 35°36' E 140°07'0 0.0
2015-Jun-27 17:33N 35°36' E 140°07'0 0.0
2015-Jun-27 16:33N 35°36' E 140°07'0 0.0
2015-Jun-27 15:33N 35°36' E 140°07'0 0.0
2015-Jun-27 14:33N 35°36' E 140°07'0 0.0
2015-Jun-27 13:33N 35°36' E 140°07'0 0.0
2015-Jun-27 12:33N 35°36' E 140°07'0 0.0
2015-Jun-27 11:33N 35°36' E 140°07'0 0.0
2015-Jun-27 10:33N 35°36' E 140°07'0 0.0
2015-Jun-27 09:33N 35°36' E 140°07'0 0.0
2015-Jun-27 08:33N 35°36' E 140°07'1 0.9
2015-Jun-27 07:33N 35°35' E 140°06'1 0.6
2015-Jun-27 06:33N 35°36' E 140°06'8 7.6
2015-Jun-27 05:33N 35°32' E 139°58'1 1.0
2015-Jun-27 04:34N 35°32' E 139°57'  

Dump ship's entire track history